createdAt,value
2022-08-30T00:01:33.653Z,4.05
2022-08-30T00:04:01.651Z,3.70
2022-08-30T00:06:30.299Z,3.60
2022-08-30T00:08:57.525Z,3.58
2022-08-30T00:11:27.309Z,3.55
2022-08-30T00:13:56.670Z,4.00
2022-08-30T00:16:24.664Z,3.45
2022-08-30T00:18:52.400Z,3.35
2022-08-30T00:21:19.858Z,5.45
2022-08-30T00:23:47.258Z,3.60
2022-08-30T00:26:14.707Z,3.45
2022-08-30T00:28:42.192Z,3.63
2022-08-30T00:31:09.480Z,4.05
2022-08-30T00:33:36.921Z,3.22
2022-08-30T00:36:04.509Z,4.03
2022-08-30T00:38:32.020Z,2.85
2022-08-30T00:40:59.847Z,3.63
2022-08-30T00:43:31.200Z,3.20
2022-08-30T00:45:58.696Z,3.63
2022-08-30T00:48:26.047Z,3.92
2022-08-30T00:50:59.811Z,3.90
2022-08-30T00:53:35.540Z,3.85
2022-08-30T00:56:04.513Z,3.40
2022-08-30T00:58:36.770Z,4.10
2022-08-30T01:01:06.253Z,4.00
2022-08-30T01:03:34.996Z,3.67
2022-08-30T01:06:04.528Z,4.13
2022-08-30T01:08:31.934Z,4.30
2022-08-30T01:11:00.289Z,4.57
2022-08-30T01:13:31.404Z,4.47
2022-08-30T01:16:02.673Z,4.60
2022-08-30T01:18:32.063Z,4.90
2022-08-30T01:21:27.528Z,4.90
2022-08-30T01:23:57.281Z,3.97
2022-08-30T01:26:26.395Z,4.28
2022-08-30T01:28:58.563Z,4.90
2022-08-30T01:31:26.533Z,3.72
2022-08-30T01:33:54.130Z,4.28
2022-08-30T01:36:21.523Z,4.72
2022-08-30T01:38:56.885Z,3.90
2022-08-30T01:41:24.107Z,3.70
2022-08-30T01:43:54.230Z,4.13
2022-08-30T01:46:24.503Z,4.20
2022-08-30T01:48:54.382Z,4.10
2022-08-30T01:51:23.913Z,4.13
2022-08-30T01:53:51.461Z,4.35
2022-08-30T01:56:19.304Z,4.35
2022-08-30T01:58:46.773Z,5.38
2022-08-30T02:01:20.012Z,5.35
2022-08-30T02:03:48.493Z,4.88
2022-08-30T02:06:19.434Z,5.75
2022-08-30T02:08:47.263Z,5.90
2022-08-30T02:11:15.255Z,5.47
2022-08-30T02:13:44.241Z,4.70
2022-08-30T02:16:16.079Z,5.03
2022-08-30T02:18:43.982Z,5.15
2022-08-30T02:21:12.640Z,5.28
2022-08-30T02:23:39.906Z,4.80
2022-08-30T02:26:07.703Z,5.07
2022-08-30T02:28:35.155Z,5.72
2022-08-30T02:31:10.941Z,5.60
2022-08-30T02:33:40.400Z,4.88
2022-08-30T02:36:08.654Z,4.68
2022-08-30T02:38:37.012Z,4.07
2022-08-30T02:41:04.507Z,5.18
2022-08-30T02:43:31.870Z,4.60
2022-08-30T02:45:59.275Z,4.35
2022-08-30T02:48:26.735Z,4.15
2022-08-30T02:50:54.021Z,4.50
2022-08-30T02:53:22.156Z,4.15
2022-08-30T02:55:49.864Z,4.00
2022-08-30T02:58:17.128Z,4.53
2022-08-30T03:00:44.444Z,3.88
2022-08-30T03:03:11.757Z,4.18
2022-08-30T03:05:39.732Z,4.13
2022-08-30T03:08:08.259Z,3.97
2022-08-30T03:10:36.434Z,3.33
2022-08-30T03:13:05.896Z,4.40
2022-08-30T03:15:34.438Z,4.10
2022-08-30T03:18:02.394Z,4.18
2022-08-30T03:20:29.862Z,4.60
2022-08-30T03:22:57.137Z,4.55
2022-08-30T03:25:24.360Z,5.07
2022-08-30T03:27:51.809Z,4.32
2022-08-30T03:30:20.667Z,4.57
2022-08-30T03:32:48.065Z,4.40
2022-08-30T03:35:17.337Z,3.75
2022-08-30T03:37:46.660Z,3.70
2022-08-30T03:40:17.178Z,3.72
2022-08-30T03:42:46.192Z,3.67
2022-08-30T03:45:16.683Z,4.15
2022-08-30T03:47:45.178Z,3.40
2022-08-30T03:50:15.580Z,3.50
2022-08-30T03:52:43.264Z,4.32
2022-08-30T03:55:10.620Z,3.58
2022-08-30T03:57:39.535Z,3.28
2022-08-30T04:00:12.387Z,3.42
2022-08-30T04:02:40.174Z,4.15
2022-08-30T04:05:09.117Z,3.33
2022-08-30T04:07:36.545Z,3.78
2022-08-30T04:10:05.601Z,3.08
2022-08-30T04:12:32.875Z,3.42
2022-08-30T04:15:00.174Z,3.40
2022-08-30T04:17:28.312Z,3.22
2022-08-30T04:19:55.730Z,3.30
2022-08-30T04:22:22.949Z,3.00
2022-08-30T04:24:50.169Z,3.25
2022-08-30T04:27:20.269Z,3.42
2022-08-30T04:29:48.237Z,3.53
2022-08-30T04:32:16.719Z,3.63
2022-08-30T04:34:44.266Z,3.85
2022-08-30T04:37:11.863Z,3.55
2022-08-30T04:39:40.101Z,4.00
2022-08-30T04:42:09.543Z,3.50
2022-08-30T04:44:36.919Z,4.20
2022-08-30T04:47:04.244Z,4.03
2022-08-30T04:49:33.012Z,3.63
2022-08-30T04:52:00.285Z,4.40
2022-08-30T04:54:27.716Z,3.92
2022-08-30T04:56:54.975Z,4.22
2022-08-30T04:59:22.223Z,5.38
2022-08-30T05:01:49.528Z,4.90
2022-08-30T05:04:16.827Z,5.57
2022-08-30T05:06:44.268Z,4.97
2022-08-30T05:09:11.800Z,4.30
2022-08-30T05:11:39.177Z,4.00
2022-08-30T05:14:06.700Z,4.75
2022-08-30T05:16:34.072Z,5.28
2022-08-30T05:19:01.443Z,5.18
2022-08-30T05:21:29.305Z,5.45
2022-08-30T05:24:00.028Z,5.10
2022-08-30T05:26:31.860Z,5.18
2022-08-30T05:28:59.778Z,4.72
2022-08-30T05:31:34.516Z,5.13
2022-08-30T05:34:02.767Z,5.20
2022-08-30T05:36:32.220Z,3.65
2022-08-30T05:39:00.526Z,3.45
2022-08-30T05:41:28.715Z,3.90
2022-08-30T05:43:57.804Z,3.38
2022-08-30T05:46:29.412Z,3.30
2022-08-30T05:48:57.454Z,3.28
2022-08-30T05:51:28.808Z,3.25
2022-08-30T05:53:58.183Z,3.53
2022-08-30T05:56:31.125Z,3.45
2022-08-30T05:58:58.679Z,3.72
2022-08-30T06:01:27.957Z,3.13
2022-08-30T06:03:59.357Z,3.70
2022-08-30T06:06:32.723Z,3.67
2022-08-30T06:09:00.387Z,3.97
2022-08-30T06:11:28.456Z,5.68
2022-08-30T06:13:56.150Z,4.75
2022-08-30T06:16:25.899Z,3.70
2022-08-30T06:18:54.325Z,3.38
2022-08-30T06:21:27.964Z,3.97
2022-08-30T06:23:57.092Z,3.58
2022-08-30T06:26:24.548Z,3.63
2022-08-30T06:28:52.042Z,3.08
2022-08-30T06:31:21.429Z,4.22
2022-08-30T06:33:49.633Z,4.10
2022-08-30T06:36:19.436Z,4.60
2022-08-30T06:38:50.358Z,9.13
2022-08-30T06:41:20.408Z,6.78
2022-08-30T06:43:49.194Z,6.15
2022-08-30T06:46:20.552Z,5.05
2022-08-30T06:48:48.731Z,5.35
2022-08-30T06:51:20.315Z,4.35
2022-08-30T06:53:49.165Z,5.03
2022-08-30T06:56:17.513Z,4.82
2022-08-30T06:58:45.791Z,4.40
2022-08-30T07:01:19.710Z,4.35
2022-08-30T07:03:47.137Z,4.60
2022-08-30T07:06:14.400Z,4.50
2022-08-30T07:08:42.475Z,4.47
2022-08-30T07:11:10.756Z,4.07
2022-08-30T07:13:38.751Z,4.40
2022-08-30T07:16:11.665Z,3.85
2022-08-30T07:18:51.232Z,4.20
2022-08-30T07:21:25.364Z,3.63
2022-08-30T07:23:53.944Z,3.70
2022-08-30T07:26:25.411Z,4.03
2022-08-30T07:28:56.201Z,3.38
2022-08-30T07:31:25.156Z,4.40
2022-08-30T07:33:52.811Z,3.88
2022-08-30T07:36:21.871Z,4.03
2022-08-30T07:38:50.508Z,4.05
2022-08-30T07:41:29.352Z,3.75
2022-08-30T07:43:58.667Z,4.45
2022-08-30T07:46:26.464Z,4.97
2022-08-30T07:48:55.875Z,5.57
2022-08-30T07:51:25.965Z,6.53
2022-08-30T07:53:55.040Z,7.32
2022-08-30T07:56:23.307Z,7.53
2022-08-30T07:58:51.084Z,8.98
2022-08-30T08:01:19.121Z,9.18
2022-08-30T08:03:47.944Z,10.15
2022-08-30T08:06:17.783Z,8.57
2022-08-30T08:08:48.115Z,8.85
2022-08-30T08:11:21.663Z,8.98
2022-08-30T08:13:53.872Z,8.40
2022-08-30T08:16:24.032Z,8.23
2022-08-30T08:18:53.004Z,9.40
2022-08-30T08:21:21.925Z,8.55
2022-08-30T08:23:49.790Z,8.77
2022-08-30T08:26:18.924Z,9.00
2022-08-30T08:28:47.270Z,10.35
2022-08-30T08:31:20.945Z,10.13
2022-08-30T08:33:48.731Z,8.85
2022-08-30T08:36:16.387Z,9.38
2022-08-30T08:38:44.458Z,8.85
2022-08-30T08:41:49.101Z,8.13
2022-08-30T08:44:22.792Z,9.63
2022-08-30T08:47:07.806Z,9.40
2022-08-30T08:49:38.848Z,9.35
2022-08-30T08:52:26.852Z,7.75
2022-08-30T08:55:02.423Z,8.60
2022-08-30T08:57:35.223Z,8.45
2022-08-30T09:00:06.063Z,8.18
2022-08-30T09:02:50.680Z,11.80
2022-08-30T09:05:25.920Z,7.88
2022-08-30T09:08:04.612Z,7.57
2022-08-30T09:10:49.878Z,7.47
2022-08-30T09:13:19.728Z,6.63
2022-08-30T09:15:55.700Z,5.90
2022-08-30T09:18:45.602Z,7.20
2022-08-30T09:21:14.792Z,5.60
2022-08-30T09:23:59.100Z,6.28
2022-08-30T09:26:35.302Z,6.00
2022-08-30T09:29:05.198Z,6.15
2022-08-30T09:31:47.395Z,6.88
2022-08-30T09:34:31.594Z,6.20
2022-08-30T09:37:01.131Z,6.20
2022-08-30T09:39:38.191Z,5.85
2022-08-30T09:42:20.599Z,5.60
2022-08-30T09:44:48.228Z,5.07
2022-08-30T09:47:28.525Z,5.30
2022-08-30T09:50:10.022Z,5.32
2022-08-30T09:52:54.565Z,5.40
2022-08-30T09:55:59.960Z,5.20
2022-08-30T09:58:36.872Z,5.93
2022-08-30T10:01:20.423Z,5.60
2022-08-30T10:04:08.425Z,5.18
2022-08-30T10:07:02.092Z,5.22
2022-08-30T10:09:38.930Z,5.97
2022-08-30T10:12:19.615Z,4.70
2022-08-30T10:14:53.076Z,5.45
2022-08-30T10:17:27.100Z,4.60
2022-08-30T10:20:15.454Z,4.70
2022-08-30T10:22:52.513Z,4.28
2022-08-30T10:25:28.793Z,4.90
2022-08-30T10:28:06.959Z,4.63
2022-08-30T10:30:38.388Z,4.28
2022-08-30T10:35:56.051Z,4.18
2022-08-30T10:38:55.858Z,4.70
2022-08-30T10:41:28.323Z,4.50
2022-08-30T10:44:02.250Z,4.22
2022-08-30T10:47:01.460Z,4.18
2022-08-30T10:49:37.402Z,3.97
2022-08-30T10:52:26.676Z,4.43
2022-08-30T10:55:18.256Z,4.18
2022-08-30T10:57:45.835Z,3.80
2022-08-30T11:00:24.380Z,4.07
2022-08-30T11:03:12.870Z,3.97
2022-08-30T11:05:49.160Z,4.28
2022-08-30T11:15:16.361Z,3.40
2022-08-30T11:21:32.525Z,3.88
2022-08-30T11:24:11.380Z,3.85
2022-08-30T11:26:45.520Z,4.47
2022-08-30T11:29:34.541Z,4.30
2022-08-30T11:32:13.660Z,3.70
2022-08-30T11:34:47.000Z,3.80
2022-08-30T11:37:35.974Z,3.90
2022-08-30T11:40:24.505Z,3.78
2022-08-30T11:42:55.724Z,4.03
2022-08-30T11:45:24.861Z,3.85
2022-08-30T11:48:05.619Z,3.28
2022-08-30T11:50:55.241Z,3.95
2022-08-30T11:53:37.268Z,4.15
2022-08-30T11:56:12.448Z,3.15
2022-08-30T11:58:51.004Z,3.15
2022-08-30T12:01:50.123Z,3.92
2022-08-30T12:04:21.311Z,3.03
2022-08-30T12:07:00.378Z,3.35
2022-08-30T12:09:28.184Z,3.55
2022-08-30T12:12:05.167Z,3.95
2022-08-30T12:14:41.574Z,3.30
2022-08-30T12:17:40.931Z,3.47
2022-08-30T12:20:19.679Z,2.88
2022-08-30T12:22:49.963Z,3.20
2022-08-30T12:25:24.132Z,3.60
2022-08-30T12:27:51.492Z,3.38
2022-08-30T12:30:27.686Z,3.00
2022-08-30T12:32:55.402Z,3.00
2022-08-30T12:35:28.041Z,3.10
2022-08-30T12:37:59.519Z,2.97
2022-08-30T12:40:27.824Z,2.75
2022-08-30T12:42:58.438Z,3.00
2022-08-30T12:45:31.748Z,3.17
2022-08-30T12:48:11.343Z,2.92
2022-08-30T12:50:51.943Z,2.60
2022-08-30T12:53:46.170Z,2.80
2022-08-30T12:56:21.274Z,3.05
2022-08-30T12:59:02.438Z,3.35
2022-08-30T13:01:32.327Z,3.33
2022-08-30T13:04:26.891Z,2.85
2022-08-30T13:07:41.453Z,3.55
2022-08-30T13:10:20.209Z,3.05
2022-08-30T13:13:04.827Z,2.90
2022-08-30T13:15:35.929Z,3.22
2022-08-30T13:18:27.724Z,3.20
2022-08-30T13:21:26.167Z,3.28
2022-08-30T13:24:00.097Z,3.10
2022-08-30T13:26:33.256Z,3.45
2022-08-30T13:29:04.545Z,2.88
2022-08-30T13:31:37.041Z,2.78
2022-08-30T13:34:05.077Z,3.05
2022-08-30T13:36:35.849Z,3.35
2022-08-30T13:39:05.283Z,3.50
2022-08-30T13:41:34.074Z,3.08
2022-08-30T13:44:36.861Z,3.00
2022-08-30T13:50:01.075Z,3.00
2022-08-30T13:52:30.082Z,3.28
2022-08-30T13:55:10.964Z,3.17
2022-08-30T13:57:54.417Z,2.97
2022-08-30T14:00:25.376Z,3.58
2022-08-30T14:02:57.663Z,2.92
2022-08-30T14:08:45.350Z,2.88
2022-08-30T14:11:18.355Z,3.65
2022-08-30T14:16:38.458Z,3.00
2022-08-30T14:19:07.422Z,2.65
2022-08-30T14:21:36.003Z,2.95
2022-08-30T14:24:06.329Z,5.72
2022-08-30T14:26:39.890Z,2.88
2022-08-30T14:29:09.808Z,3.30
2022-08-30T14:31:39.462Z,2.70
2022-08-30T14:34:08.986Z,3.45
2022-08-30T14:36:41.262Z,2.85
2022-08-30T14:39:14.470Z,3.47
2022-08-30T14:44:13.358Z,2.72
2022-08-30T14:46:40.999Z,2.92
2022-08-30T14:49:11.095Z,3.20
2022-08-30T14:51:39.320Z,2.67
2022-08-30T14:54:08.171Z,3.08
2022-08-30T14:56:38.101Z,2.90
2022-08-30T14:59:06.194Z,2.90
2022-08-30T15:01:37.147Z,3.22
2022-08-30T15:04:07.450Z,3.50
2022-08-30T15:06:36.669Z,3.33
2022-08-30T15:09:06.232Z,3.05
2022-08-30T15:11:34.173Z,3.08
2022-08-30T15:14:01.899Z,2.90
2022-08-30T15:16:35.817Z,3.25
2022-08-30T15:19:05.388Z,3.58
2022-08-30T15:21:43.252Z,3.85
2022-08-30T15:24:24.876Z,5.28
2022-08-30T15:26:59.515Z,6.45
2022-08-30T15:29:28.132Z,11.70
2022-08-30T15:31:58.381Z,8.05
2022-08-30T15:34:26.181Z,6.65
2022-08-30T15:36:55.931Z,3.40
2022-08-30T15:39:24.322Z,3.67
2022-08-30T15:41:57.147Z,6.60
2022-08-30T15:44:27.165Z,6.03
2022-08-30T15:46:54.490Z,5.20
2022-08-30T15:49:24.184Z,6.05
2022-08-30T15:51:54.244Z,3.67
2022-08-30T15:54:23.892Z,4.07
2022-08-30T15:56:59.250Z,4.13
2022-08-30T15:59:31.098Z,4.18
2022-08-30T16:01:58.730Z,4.22
2022-08-30T16:04:26.856Z,4.35
2022-08-30T16:06:54.510Z,5.75
2022-08-30T16:09:22.520Z,5.55
2022-08-30T16:11:50.881Z,5.43
2022-08-30T16:14:18.291Z,5.25
2022-08-30T16:16:46.509Z,5.22
2022-08-30T16:19:13.862Z,5.13
2022-08-30T16:21:43.395Z,4.95
2022-08-30T16:24:13.826Z,5.53
2022-08-30T16:26:43.133Z,5.32
2022-08-30T16:29:12.467Z,4.53
2022-08-30T16:31:40.802Z,5.07
2022-08-30T16:34:08.095Z,4.38
2022-08-30T16:36:35.971Z,5.00
2022-08-30T16:39:08.154Z,4.93
2022-08-30T16:41:37.355Z,5.50
2022-08-30T16:44:06.267Z,6.40
2022-08-30T16:46:34.827Z,4.88
2022-08-30T16:49:02.755Z,5.30
2022-08-30T16:51:32.446Z,4.72
2022-08-30T16:54:03.829Z,4.72
2022-08-30T16:56:32.799Z,4.32
2022-08-30T16:59:02.978Z,5.45
2022-08-30T17:01:34.823Z,4.60
2022-08-30T17:04:04.313Z,5.72
2022-08-30T17:06:32.795Z,5.10
2022-08-30T17:09:00.363Z,5.68
2022-08-30T17:11:28.176Z,5.60
2022-08-30T17:13:55.511Z,5.10
2022-08-30T17:16:27.682Z,5.60
2022-08-30T17:19:00.829Z,5.03
2022-08-30T17:21:29.689Z,5.28
2022-08-30T17:24:01.683Z,4.93
2022-08-30T17:26:34.969Z,5.25
2022-08-30T17:29:04.017Z,5.75
2022-08-30T17:31:31.660Z,5.90
2022-08-30T17:34:03.212Z,5.90
2022-08-30T17:39:23.616Z,5.82
2022-08-30T17:41:51.692Z,6.15
2022-08-30T17:44:29.011Z,6.82
2022-08-30T17:46:57.616Z,5.78
2022-08-30T17:49:29.473Z,6.57
2022-08-30T17:51:57.547Z,6.20
2022-08-30T17:54:27.653Z,6.47
2022-08-30T17:56:56.148Z,6.32
2022-08-30T17:59:25.343Z,6.95
2022-08-30T18:01:54.794Z,6.07
2022-08-30T18:04:24.943Z,7.43
2022-08-30T18:06:53.007Z,7.28
2022-08-30T18:09:20.599Z,8.00
2022-08-30T18:11:48.395Z,7.30
2022-08-30T18:14:16.667Z,7.57
2022-08-30T18:16:53.233Z,7.38
2022-08-30T18:19:24.170Z,7.25
2022-08-30T18:21:52.704Z,8.13
2022-08-30T18:24:20.374Z,10.90
2022-08-30T18:26:47.833Z,7.47
2022-08-30T18:29:15.655Z,8.18
2022-08-30T18:31:56.529Z,7.95
2022-08-30T18:34:23.903Z,8.05
2022-08-30T18:36:51.139Z,8.02
2022-08-30T18:39:19.325Z,7.95
2022-08-30T18:41:48.204Z,11.50
2022-08-30T18:47:05.585Z,11.95
2022-08-30T18:49:34.890Z,12.93
2022-08-30T18:52:09.769Z,12.77
2022-08-30T18:54:42.780Z,11.48
2022-08-30T18:57:13.205Z,11.93
2022-08-30T18:59:41.798Z,11.60
2022-08-30T19:02:13.700Z,10.10
2022-08-30T19:04:42.866Z,12.07
2022-08-30T19:07:13.141Z,11.43
2022-08-30T19:09:43.082Z,10.75
2022-08-30T19:12:11.572Z,11.77
2022-08-30T19:14:39.616Z,11.27
2022-08-30T19:17:07.824Z,11.55
2022-08-30T19:19:37.248Z,11.77
2022-08-30T19:22:17.521Z,12.05
2022-08-30T19:24:46.864Z,11.48
2022-08-30T19:27:14.217Z,10.48
2022-08-30T19:29:41.917Z,10.88
2022-08-30T19:32:12.272Z,11.75
2022-08-30T19:34:40.920Z,11.70
2022-08-30T19:37:08.746Z,11.40
2022-08-30T19:39:43.121Z,11.27
2022-08-30T19:42:14.161Z,10.82
2022-08-30T19:44:41.435Z,11.30
2022-08-30T19:47:08.748Z,12.82
2022-08-30T19:49:36.832Z,11.15
2022-08-30T19:52:04.955Z,11.55
2022-08-30T19:54:32.308Z,12.25
2022-08-30T19:56:59.680Z,11.40
2022-08-30T19:59:27.720Z,11.45
2022-08-30T20:01:57.029Z,11.63
2022-08-30T20:04:24.349Z,12.23
2022-08-30T20:06:51.612Z,11.95
2022-08-30T20:09:18.966Z,13.00
2022-08-30T20:11:46.378Z,12.60
2022-08-30T20:14:19.812Z,11.50
2022-08-30T20:16:47.550Z,11.77
2022-08-30T20:19:17.092Z,12.35
2022-08-30T20:21:46.132Z,12.27
2022-08-30T20:24:14.548Z,11.63
2022-08-30T20:24:25.138Z,6.10
2022-08-30T20:24:29.304Z,11.50
2022-08-30T20:26:42.054Z,11.57
2022-08-30T20:29:09.573Z,11.73
2022-08-30T20:31:38.604Z,9.65
2022-08-30T20:34:07.044Z,11.25
2022-08-30T20:36:34.748Z,11.32
2022-08-30T20:39:02.240Z,11.20
2022-08-30T20:41:30.764Z,11.50
2022-08-30T20:43:58.364Z,11.07
2022-08-30T20:46:27.028Z,11.55
2022-08-30T20:48:56.995Z,13.85
2022-08-30T20:51:24.268Z,12.15
2022-08-30T20:53:51.642Z,11.95
2022-08-30T20:56:27.709Z,11.27
2022-08-30T20:58:55.889Z,14.18
2022-08-30T21:01:23.661Z,13.00
2022-08-30T21:03:50.957Z,12.35
2022-08-30T21:06:18.283Z,12.85
2022-08-30T21:08:45.649Z,12.55
2022-08-30T21:11:13.067Z,13.02
2022-08-30T21:13:40.365Z,12.23
2022-08-30T21:16:08.030Z,13.38
2022-08-30T21:18:39.529Z,14.10
2022-08-30T21:21:21.576Z,12.75
2022-08-30T21:23:50.325Z,13.60
2022-08-30T21:26:19.067Z,13.40
2022-08-30T21:28:52.008Z,13.75
2022-08-30T21:31:22.282Z,12.98
2022-08-30T21:33:51.519Z,13.50
2022-08-30T21:36:39.039Z,15.60
2022-08-30T21:39:07.411Z,15.20
2022-08-30T21:41:36.913Z,13.15
2022-08-30T21:44:07.211Z,13.75
2022-08-30T21:46:36.017Z,13.98
2022-08-30T21:49:05.793Z,13.60
2022-08-30T21:51:35.531Z,13.45
2022-08-30T21:54:04.592Z,14.25
2022-08-30T21:56:31.884Z,14.70
2022-08-30T21:58:59.189Z,14.10
2022-08-30T22:01:29.191Z,13.20
2022-08-30T22:03:59.009Z,14.27
2022-08-30T22:06:30.974Z,15.20
2022-08-30T22:09:01.180Z,12.05
2022-08-30T22:11:30.405Z,13.90
2022-08-30T22:13:58.058Z,14.30
2022-08-30T22:16:26.095Z,12.90
2022-08-30T22:18:53.535Z,13.27
2022-08-30T22:21:24.820Z,12.70
2022-08-30T22:23:52.271Z,12.88
2022-08-30T22:26:20.946Z,12.95
2022-08-30T22:28:48.742Z,13.82
2022-08-30T22:31:17.776Z,13.95
2022-08-30T22:33:46.865Z,12.95
2022-08-30T22:36:18.868Z,12.95
2022-08-30T22:38:46.154Z,12.27
2022-08-30T22:41:17.056Z,13.90
2022-08-30T22:43:44.652Z,13.43
2022-08-30T22:46:12.796Z,13.05
2022-08-30T22:48:42.547Z,12.90
2022-08-30T22:51:11.996Z,13.10
2022-08-30T22:53:40.686Z,13.57
2022-08-30T22:56:16.399Z,13.85
2022-08-30T22:58:44.289Z,13.05
2022-08-30T23:01:19.799Z,12.32
2022-08-30T23:03:47.296Z,13.02
2022-08-30T23:06:14.652Z,14.20
2022-08-30T23:08:42.039Z,13.57
2022-08-30T23:11:09.548Z,17.15
2022-08-30T23:13:37.143Z,14.63
2022-08-30T23:16:07.731Z,15.65
2022-08-30T23:18:38.332Z,14.98
2022-08-30T23:21:10.868Z,16.50
2022-08-30T23:23:57.096Z,15.65
2022-08-30T23:26:43.259Z,15.38
2022-08-30T23:29:29.883Z,15.40
2022-08-30T23:32:15.944Z,16.92
2022-08-30T23:35:02.375Z,17.08
2022-08-30T23:37:48.495Z,17.90
2022-08-30T23:40:38.402Z,16.67
2022-08-30T23:43:24.276Z,17.73
2022-08-30T23:46:10.132Z,18.35
2022-08-30T23:48:56.009Z,17.05
2022-08-30T23:51:41.972Z,16.17
2022-08-30T23:54:27.702Z,17.13
2022-08-30T23:57:13.165Z,15.68
2022-08-30T23:59:58.803Z,14.07
